RTS weather

Rottnest Island Airport
Western Australia, Australia

Public forecast

Using degrees Celsius for public forecast. Weather courtesy of forecast.io.

METAR (pilot weather report)

Closest report is Perth Jandakot Airport, 18.2 nm (33.7 km) ESE. Retrieved 2019/03/19 18:33 UTC (7 seconds ago):

YPJT 191833Z AUTO 00000KT 9999 // NCD 20/20 Q1010 RF00.0/000.0

TAF (pilot weather forecast)

Closest forecast is Perth Jandakot Airport, 18.2 nm (33.7 km) ESE. Retrieved 2019/03/19 18:00 UTC (33 minutes ago):

TAF YPJT 191632Z 1918/2012 VRB03KT 9999 BKN005 FM200000 14005KT CAVOK FM200500 23010KT CAVOK